Time;durP1;ratioP1;P1;durP2;ratioP2;P2;SDS_P1;SDS_P2;PMS_P1;PMS_P2;Temp;Humidity;BMP_temperature;BMP_pressure;BME280_temperature;BME280_humidity;BME280_pressure;Samples;Min_cycle;Max_cycle;Signal;HPM_P1;HPM_P2
2021/11/16 00:01:53;;;;;;;72.38;17.02;;;11.10;91.30;;;;;;5061620;28;20040;-60
2021/11/16 00:04:18;;;;;;;68.05;17.65;;;11.10;91.30;;;;;;5029084;28;20439;-60
2021/11/16 00:06:50;;;;;;;63.05;17.27;;;11.10;91.40;;;;;;5046058;28;20077;-60
2021/11/16 00:09:16;;;;;;;52.83;15.80;;;11.10;91.40;;;;;;5065246;28;20024;-59
2021/11/16 00:11:41;;;;;;;57.17;16.73;;;11.10;91.40;;;;;;5065046;28;20028;-60
2021/11/16 00:14:07;;;;;;;90.45;17.45;;;11.10;91.40;;;;;;5045452;28;20029;-60
2021/11/16 00:16:33;;;;;;;73.65;17.15;;;11.00;91.30;;;;;;5030068;28;20029;-60
2021/11/16 00:19:01;;;;;;;94.20;17.45;;;11.00;91.40;;;;;;5046667;28;20063;-60
2021/11/16 00:25:07;;;;;;;90.28;16.30;;;11.00;91.50;;;;;;5065005;28;20116;-60
2021/11/16 00:27:33;;;;;;;55.15;16.60;;;11.00;91.50;;;;;;5034984;28;20013;-60
2021/11/16 00:29:59;;;;;;;75.75;17.38;;;10.90;91.50;;;;;;5043544;28;20439;-60
2021/11/16 00:32:24;;;;;;;119.10;20.27;;;10.90;91.50;;;;;;5046399;28;20024;-60
2021/11/16 00:34:50;;;;;;;257.98;30.67;;;10.90;91.50;;;;;;5064071;28;20065;-60
2021/11/16 00:37:16;;;;;;;146.57;24.10;;;10.90;91.40;;;;;;5046891;28;20033;-60
2021/11/16 00:39:42;;;;;;;136.27;23.65;;;10.90;91.40;;;;;;5045715;28;20031;-60
2021/11/16 00:42:08;;;;;;;133.55;21.73;;;10.90;91.50;;;;;;5044969;28;20032;-60
2021/11/16 00:44:33;;;;;;;88.25;18.02;;;10.90;91.50;;;;;;5026861;28;20187;-60
2021/11/16 00:46:59;;;;;;;85.40;17.63;;;10.90;91.50;;;;;;5028806;28;20372;-60
2021/11/16 00:49:24;;;;;;;77.38;18.20;;;10.90;91.50;;;;;;5045851;28;20029;-60
2021/11/16 00:51:50;;;;;;;63.67;16.77;;;10.90;91.50;;;;;;5064166;28;20044;-61
2021/11/16 00:54:15;;;;;;;92.82;17.02;;;10.90;91.50;;;;;;5044408;28;20094;-59
2021/11/16 00:56:41;;;;;;;60.13;15.85;;;10.90;91.50;;;;;;5044174;28;20044;-60
2021/11/16 00:59:06;;;;;;;62.92;16.35;;;10.80;91.50;;;;;;5029187;28;20446;-60
2021/11/16 01:01:32;;;;;;;110.80;17.92;;;10.80;91.50;;;;;;5063196;28;20032;-60
2021/11/16 01:03:59;;;;;;;69.82;16.48;;;10.80;91.50;;;;;;5063605;28;20021;-60
2021/11/16 01:06:25;;;;;;;87.78;16.60;;;10.80;91.50;;;;;;5044291;28;20218;-60
2021/11/16 01:08:50;;;;;;;70.32;15.95;;;10.80;91.50;;;;;;5045137;28;20391;-60
2021/11/16 01:11:16;;;;;;;81.03;17.13;;;10.80;91.60;;;;;;5061994;28;20040;-60
2021/11/16 01:13:41;;;;;;;96.47;17.35;;;10.80;91.50;;;;;;5045650;28;20032;-60
2021/11/16 01:16:07;;;;;;;83.65;16.95;;;10.70;91.50;;;;;;5063459;28;20078;-60
2021/11/16 01:18:32;;;;;;;74.05;15.77;;;10.80;91.60;;;;;;5063191;28;20089;-60
2021/11/16 01:20:58;;;;;;;69.80;15.57;;;10.80;91.60;;;;;;5044756;28;20021;-61
2021/11/16 01:23:24;;;;;;;78.47;17.05;;;10.70;91.60;;;;;;5026955;28;20032;-60
2021/11/16 01:25:49;;;;;;;77.43;14.98;;;10.70;91.60;;;;;;5045419;28;20673;-60
2021/11/16 01:28:17;;;;;;;66.22;15.38;;;10.70;91.60;;;;;;5063344;28;20017;-60
2021/11/16 01:30:46;;;;;;;60.08;14.85;;;10.70;91.60;;;;;;5045214;28;20472;-60
2021/11/16 01:33:14;;;;;;;65.88;14.40;;;10.70;91.60;;;;;;5027721;28;20507;-60
2021/11/16 01:35:41;;;;;;;58.33;14.50;;;10.70;91.70;;;;;;5061826;28;20341;-60
2021/11/16 01:38:08;;;;;;;46.75;12.93;;;10.70;91.70;;;;;;5044981;28;20052;-60
2021/11/16 01:40:34;;;;;;;46.60;13.35;;;10.70;91.80;;;;;;5062723;28;20032;-60
2021/11/16 01:43:02;;;;;;;56.97;13.25;;;10.70;91.80;;;;;;5045936;28;20040;-60
2021/11/16 01:45:27;;;;;;;35.97;12.43;;;10.60;91.80;;;;;;5044635;28;20515;-60
2021/11/16 01:47:53;;;;;;;54.13;12.52;;;10.60;91.80;;;;;;5061033;28;20034;-60
2021/11/16 01:50:19;;;;;;;37.95;12.10;;;10.60;91.90;;;;;;5028125;28;20032;-60
2021/11/16 01:52:45;;;;;;;38.80;12.90;;;10.60;91.90;;;;;;5063420;28;20039;-60
2021/11/16 01:55:11;;;;;;;31.00;11.88;;;10.60;92.00;;;;;;5044913;28;20395;-60
2021/11/16 01:57:37;;;;;;;37.38;12.35;;;10.60;92.00;;;;;;5045049;28;20032;-60
2021/11/16 02:00:10;;;;;;;42.83;13.43;;;10.60;92.00;;;;;;5060717;28;20357;-60
2021/11/16 02:02:35;;;;;;;48.30;13.35;;;10.60;92.00;;;;;;5025082;28;20070;-60
2021/11/16 02:05:01;;;;;;;35.53;12.40;;;10.60;92.10;;;;;;5028957;28;20048;-60
2021/11/16 02:07:26;;;;;;;40.03;12.60;;;10.60;92.10;;;;;;5045278;28;20020;-60
2021/11/16 02:09:52;;;;;;;35.72;12.48;;;10.50;92.20;;;;;;5063070;28;20495;-60
2021/11/16 02:12:17;;;;;;;43.38;12.82;;;10.50;92.10;;;;;;5043262;28;20024;-60
2021/11/16 02:14:43;;;;;;;28.90;12.13;;;10.50;92.20;;;;;;5011068;28;20066;-60
2021/11/16 02:17:09;;;;;;;30.50;11.23;;;10.50;92.20;;;;;;5065756;28;20051;-60
2021/11/16 02:19:34;;;;;;;23.35;12.38;;;10.50;92.20;;;;;;5048652;28;20066;-60
2021/11/16 02:22:00;;;;;;;30.08;11.95;;;10.50;92.20;;;;;;5049270;28;20081;-60
2021/11/16 02:24:25;;;;;;;22.73;11.68;;;10.50;92.20;;;;;;5065275;28;20040;-60
2021/11/16 02:26:51;;;;;;;24.90;11.52;;;10.50;92.20;;;;;;5030168;28;20048;-59
2021/11/16 02:29:16;;;;;;;33.03;12.48;;;10.50;92.20;;;;;;5044271;28;20384;-60
2021/11/16 02:31:44;;;;;;;22.88;12.20;;;10.40;92.20;;;;;;5064992;28;20032;-60
2021/11/16 02:34:10;;;;;;;23.35;11.95;;;10.40;92.30;;;;;;5031045;28;20036;-60
2021/11/16 02:36:35;;;;;;;21.42;11.32;;;10.40;92.30;;;;;;5032941;28;20065;-60
2021/11/16 02:39:01;;;;;;;22.17;11.38;;;10.40;92.30;;;;;;5046372;28;20348;-60
2021/11/16 02:41:31;;;;;;;19.33;13.20;;;10.40;92.30;;;;;;5063679;28;20039;-60
2021/11/16 02:43:58;;;;;;;22.73;12.32;;;10.40;92.30;;;;;;5046652;28;20420;-60
2021/11/16 02:46:24;;;;;;;17.98;12.07;;;10.40;92.30;;;;;;5047797;28;20050;-60
2021/11/16 02:48:49;;;;;;;24.27;12.38;;;10.40;92.30;;;;;;5048504;28;20044;-60
2021/11/16 02:51:15;;;;;;;21.17;12.63;;;10.40;92.40;;;;;;5044735;28;20108;-60
2021/11/16 02:53:41;;;;;;;21.70;12.35;;;10.40;92.40;;;;;;5045517;28;20164;-60
2021/11/16 02:56:06;;;;;;;32.10;12.82;;;10.40;92.30;;;;;;5046165;28;20359;-60
2021/11/16 02:58:32;;;;;;;18.58;11.90;;;10.40;92.30;;;;;;5048445;28;20032;-59
2021/11/16 03:01:03;;;;;;;19.40;12.48;;;10.40;92.30;;;;;;5048529;28;20133;-60
2021/11/16 03:03:29;;;;;;;25.08;11.85;;;10.40;92.30;;;;;;5030538;28;20032;-60
2021/11/16 03:05:55;;;;;;;26.40;12.38;;;10.40;92.30;;;;;;5046601;28;20028;-59
2021/11/16 03:08:24;;;;;;;19.98;11.65;;;10.30;92.30;;;;;;5064609;28;20603;-60
2021/11/16 03:10:51;;;;;;;19.48;11.00;;;10.40;92.30;;;;;;5066591;28;20233;-60
2021/11/16 03:13:17;;;;;;;24.55;11.65;;;10.40;92.30;;;;;;5032371;28;20024;-60
2021/11/16 03:15:43;;;;;;;17.67;12.15;;;10.30;92.30;;;;;;5030261;28;20024;-60
2021/11/16 03:18:08;;;;;;;28.15;12.20;;;10.30;92.30;;;;;;5045814;28;20840;-60
2021/11/16 03:20:34;;;;;;;20.90;12.05;;;10.30;92.30;;;;;;5046109;28;20071;-60
2021/11/16 03:23:17;;;;;;;17.50;11.45;;;10.30;92.40;;;;;;5046157;28;20029;-60
2021/11/16 03:26:04;;;;;;;19.17;12.00;;;10.30;92.40;;;;;;5034876;28;20024;-60
2021/11/16 03:28:31;;;;;;;16.05;11.57;;;10.30;92.40;;;;;;5035385;28;20064;-60
2021/11/16 03:31:09;;;;;;;20.50;11.27;;;10.30;92.40;;;;;;5030249;28;20024;-60
2021/11/16 03:33:35;;;;;;;15.43;11.02;;;10.30;92.40;;;;;;5015031;28;20302;-60
2021/11/16 03:36:02;;;;;;;18.30;11.70;;;10.30;92.40;;;;;;5029142;28;20017;-60
2021/11/16 03:38:28;;;;;;;17.83;11.00;;;10.30;92.40;;;;;;5028556;28;20091;-60
2021/11/16 03:40:55;;;;;;;15.20;11.32;;;10.20;92.40;;;;;;5015013;28;20028;-60
2021/11/16 03:43:21;;;;;;;16.92;11.77;;;10.20;92.40;;;;;;5046176;28;20400;-60
2021/11/16 03:45:48;;;;;;;18.45;12.32;;;10.30;92.40;;;;;;5062396;28;20028;-60
2021/11/16 03:48:14;;;;;;;17.48;12.65;;;10.20;92.40;;;;;;5030868;28;20012;-60
2021/11/16 03:50:40;;;;;;;17.92;12.40;;;10.20;92.40;;;;;;5065071;28;20027;-60
2021/11/16 03:53:06;;;;;;;16.40;12.15;;;10.20;92.40;;;;;;5014051;28;20029;-60
2021/11/16 03:55:35;;;;;;;18.27;11.80;;;10.20;92.40;;;;;;5063235;28;20040;-60
2021/11/16 03:58:00;;;;;;;16.65;11.60;;;10.20;92.40;;;;;;5029273;28;20044;-61
2021/11/16 04:00:41;;;;;;;16.52;12.15;;;10.20;92.50;;;;;;5045656;28;20101;-64
2021/11/16 04:03:06;;;;;;;15.45;11.20;;;10.20;92.50;;;;;;5046853;28;20329;-61
2021/11/16 04:05:33;;;;;;;17.48;11.93;;;10.20;92.50;;;;;;5064626;28;20059;-60
2021/11/16 04:07:59;;;;;;;16.20;11.68;;;10.20;92.50;;;;;;5046646;28;20067;-60
2021/11/16 04:10:24;;;;;;;18.52;12.68;;;10.20;92.50;;;;;;5029180;28;20106;-60
2021/11/16 04:12:50;;;;;;;17.45;11.68;;;10.20;92.50;;;;;;5062302;28;20566;-60
2021/11/16 04:15:16;;;;;;;19.23;11.90;;;10.20;92.50;;;;;;5030170;28;20020;-60
2021/11/16 04:17:43;;;;;;;21.10;11.32;;;10.10;92.50;;;;;;5045672;28;20025;-60
2021/11/16 04:20:16;;;;;;;30.92;12.05;;;10.10;92.50;;;;;;5031164;28;20027;-60
2021/11/16 04:22:42;;;;;;;27.75;12.00;;;10.10;92.50;;;;;;5063371;28;20035;-60
2021/11/16 04:25:08;;;;;;;20.80;11.82;;;10.10;92.50;;;;;;5045413;28;20032;-60
2021/11/16 04:27:34;;;;;;;29.15;12.50;;;10.10;92.50;;;;;;5063708;28;20376;-61
2021/11/16 04:29:59;;;;;;;21.45;12.45;;;10.10;92.50;;;;;;5046308;28;20032;-65
2021/11/16 04:32:25;;;;;;;30.13;11.90;;;10.10;92.50;;;;;;5064586;28;20487;-60
2021/11/16 04:34:51;;;;;;;35.00;12.48;;;10.10;92.50;;;;;;5029432;28;20029;-60
2021/11/16 04:37:16;;;;;;;25.90;11.35;;;10.10;92.50;;;;;;5062066;28;20515;-60
2021/11/16 04:39:42;;;;;;;31.63;11.93;;;10.10;92.50;;;;;;5060021;28;20043;-61
2021/11/16 04:42:08;;;;;;;33.55;12.32;;;10.10;92.50;;;;;;5029223;28;20081;-60
2021/11/16 04:44:33;;;;;;;29.08;12.15;;;10.10;92.50;;;;;;5029072;28;20040;-60
2021/11/16 04:47:00;;;;;;;27.63;11.93;;;10.10;92.50;;;;;;5043614;28;20302;-60
2021/11/16 04:49:32;;;;;;;23.50;11.85;;;10.10;92.50;;;;;;5028542;28;20029;-60
2021/11/16 04:52:47;;;;;;;18.35;11.65;;;10.10;92.50;;;;;;5061244;28;20258;-60
2021/11/16 05:02:53;;;;;;;16.20;10.60;;;10.10;92.50;;;;;;5061893;28;20457;-60
2021/11/16 05:05:20;;;;;;;16.50;11.07;;;10.00;92.40;;;;;;5042738;28;20129;-60
2021/11/16 05:07:51;;;;;;;18.73;11.15;;;10.00;92.50;;;;;;5029140;28;20020;-60
2021/11/16 05:10:17;;;;;;;21.95;10.73;;;10.00;92.50;;;;;;5064932;28;20104;-60
2021/11/16 05:12:42;;;;;;;20.63;10.65;;;10.00;92.50;;;;;;5064327;28;20112;-60
2021/11/16 05:15:11;;;;;;;19.20;11.07;;;10.00;92.50;;;;;;5045568;28;20021;-60
2021/11/16 05:17:37;;;;;;;17.50;10.82;;;10.00;92.50;;;;;;5045061;28;20032;-60
2021/11/16 05:20:05;;;;;;;18.58;11.80;;;10.00;92.50;;;;;;5021671;28;20399;-60
2021/11/16 05:22:30;;;;;;;17.58;11.02;;;10.00;92.50;;;;;;5046376;28;20032;-60
2021/11/16 05:24:56;;;;;;;18.27;10.52;;;10.00;92.60;;;;;;5030541;28;20040;-60
2021/11/16 05:27:21;;;;;;;15.80;11.35;;;10.00;92.60;;;;;;5045488;28;20104;-60
2021/11/16 05:29:47;;;;;;;16.65;11.52;;;10.00;92.60;;;;;;5063629;28;20055;-61
2021/11/16 05:32:12;;;;;;;19.75;11.25;;;10.00;92.60;;;;;;5046095;28;20524;-60
2021/11/16 05:34:38;;;;;;;16.90;10.85;;;10.00;92.60;;;;;;5064456;28;20127;-60
2021/11/16 05:37:04;;;;;;;14.38;9.20;;;10.00;92.60;;;;;;5064729;28;20032;-60
2021/11/16 05:39:29;;;;;;;19.55;10.88;;;10.00;92.60;;;;;;5061626;28;20063;-60
2021/11/16 05:41:55;;;;;;;17.27;10.40;;;10.00;92.60;;;;;;5046093;28;20025;-60
2021/11/16 05:44:20;;;;;;;18.98;10.93;;;10.00;92.60;;;;;;5063562;28;20502;-60
2021/11/16 05:46:46;;;;;;;20.05;11.10;;;9.90;92.60;;;;;;5046295;28;20048;-60
2021/11/16 05:49:11;;;;;;;18.13;10.77;;;10.00;92.60;;;;;;5046126;28;20040;-61
2021/11/16 05:51:37;;;;;;;13.95;10.73;;;10.00;92.60;;;;;;5067433;28;20033;-60
2021/11/16 05:54:03;;;;;;;24.55;10.35;;;9.90;92.60;;;;;;5032035;28;20029;-60
2021/11/16 05:56:34;;;;;;;16.90;10.65;;;9.90;92.60;;;;;;5062385;28;20052;-60
2021/11/16 05:58:59;;;;;;;15.07;9.82;;;9.90;92.60;;;;;;5032798;28;20017;-60
2021/11/16 06:01:26;;;;;;;12.77;10.13;;;9.90;92.60;;;;;;5032471;28;20067;-60
2021/11/16 06:03:52;;;;;;;16.13;10.02;;;9.90;92.60;;;;;;5033294;28;20064;-60
2021/11/16 06:06:25;;;;;;;13.93;9.95;;;9.90;92.60;;;;;;5049032;28;20464;-61
2021/11/16 06:08:52;;;;;;;17.85;9.75;;;9.90;92.60;;;;;;5066844;28;20103;-60
2021/11/16 06:11:18;;;;;;;14.98;10.38;;;9.90;92.60;;;;;;5030147;28;20039;-60
2021/11/16 06:13:44;;;;;;;17.02;10.20;;;9.90;92.60;;;;;;5048644;28;20684;-60
2021/11/16 06:16:10;;;;;;;15.40;10.63;;;9.80;92.50;;;;;;5048957;28;20142;-60
2021/11/16 06:18:36;;;;;;;14.38;10.60;;;9.90;92.60;;;;;;5048582;28;20103;-60
2021/11/16 06:21:01;;;;;;;12.77;9.68;;;9.80;92.60;;;;;;5047515;28;20045;-60
2021/11/16 06:23:27;;;;;;;15.13;10.02;;;9.80;92.60;;;;;;5045175;28;20123;-60
2021/11/16 06:25:52;;;;;;;14.77;9.13;;;9.80;92.50;;;;;;5032572;28;20025;-60
2021/11/16 06:28:18;;;;;;;12.20;9.73;;;9.80;92.50;;;;;;5045307;28;20063;-60
2021/11/16 06:30:44;;;;;;;13.95;9.60;;;9.80;92.50;;;;;;5048973;28;20564;-60
2021/11/16 06:33:09;;;;;;;13.00;9.23;;;9.80;92.50;;;;;;5047688;28;20028;-60
2021/11/16 06:35:35;;;;;;;13.45;9.88;;;9.80;92.50;;;;;;5046886;28;20025;-60
2021/11/16 06:38:00;;;;;;;14.18;9.50;;;9.80;92.40;;;;;;5032185;28;20024;-61
2021/11/16 06:40:26;;;;;;;13.93;9.02;;;9.80;92.40;;;;;;5067037;28;20028;-60
2021/11/16 06:42:52;;;;;;;11.23;9.05;;;9.80;92.50;;;;;;5047234;28;21539;-64
2021/11/16 06:45:18;;;;;;;11.98;8.93;;;9.80;92.50;;;;;;5027787;28;20027;-60
2021/11/16 06:47:43;;;;;;;11.02;8.38;;;9.80;92.50;;;;;;5028296;28;20094;-60
2021/11/16 06:50:09;;;;;;;11.68;9.48;;;9.80;92.50;;;;;;5048672;28;20120;-60
2021/11/16 06:52:37;;;;;;;11.52;8.45;;;9.70;92.40;;;;;;5047450;28;20384;-60
2021/11/16 06:55:04;;;;;;;10.40;8.95;;;9.70;92.50;;;;;;5030629;28;20475;-60
2021/11/16 06:57:30;;;;;;;12.57;9.32;;;9.80;92.50;;;;;;5047684;28;20458;-60
2021/11/16 06:59:55;;;;;;;12.40;8.82;;;9.80;92.40;;;;;;5045740;28;20434;-60
2021/11/16 07:02:23;;;;;;;13.93;9.60;;;9.70;92.40;;;;;;5011165;28;20044;-61
2021/11/16 07:04:48;;;;;;;11.32;8.63;;;9.80;92.40;;;;;;5048508;28;20040;-60
2021/11/16 07:07:14;;;;;;;10.98;8.57;;;9.70;92.40;;;;;;5047536;28;20509;-60
2021/11/16 07:09:40;;;;;;;13.13;9.65;;;9.70;92.50;;;;;;5031235;28;20033;-60
2021/11/16 07:12:10;;;;;;;15.13;9.35;;;10.00;92.50;;;;;;5047432;28;20091;-60
2021/11/16 07:14:37;;;;;;;9.85;8.48;;;9.70;92.40;;;;;;5027143;28;20467;-60
2021/11/16 07:17:13;;;;;;;12.65;9.32;;;9.80;92.40;;;;;;5029537;28;20032;-61
2021/11/16 07:19:44;;;;;;;12.60;8.48;;;9.70;92.40;;;;;;5031363;28;20025;-60
2021/11/16 07:22:20;;;;;;;12.13;9.25;;;9.70;92.40;;;;;;5045474;28;20078;-60
2021/11/16 07:24:48;;;;;;;11.38;8.60;;;9.80;92.40;;;;;;5063396;28;20044;-60
2021/11/16 07:27:15;;;;;;;10.77;8.95;;;9.70;92.40;;;;;;5044379;28;20021;-60
2021/11/16 07:29:47;;;;;;;10.60;8.50;;;9.80;92.40;;;;;;5044144;28;20052;-59
2021/11/16 07:32:37;;;;;;;11.70;8.98;;;9.80;92.40;;;;;;5044725;28;20044;-59
2021/11/16 07:35:06;;;;;;;13.57;8.73;;;9.80;92.40;;;;;;5049606;28;20112;-59
2021/11/16 07:37:33;;;;;;;10.40;8.00;;;9.80;92.40;;;;;;5026760;28;20028;-60
2021/11/16 07:40:01;;;;;;;10.95;8.73;;;9.70;92.30;;;;;;5063033;28;20020;-60
2021/11/16 07:42:34;;;;;;;14.45;8.88;;;9.80;92.40;;;;;;5028475;28;20531;-60
2021/11/16 07:45:03;;;;;;;13.68;9.00;;;9.80;92.40;;;;;;5048261;28;20024;-59
2021/11/16 07:47:59;;;;;;;12.18;8.20;;;9.80;92.40;;;;;;5029595;28;20040;-60
2021/11/16 07:50:31;;;;;;;18.92;9.60;;;9.80;92.50;;;;;;5061725;28;20399;-61
2021/11/16 07:53:09;;;;;;;18.35;9.07;;;9.80;92.40;;;;;;5063752;28;20479;-60
2021/11/16 07:55:35;;;;;;;15.30;9.05;;;9.80;92.40;;;;;;5044507;28;20163;-60
2021/11/16 07:58:05;;;;;;;13.73;9.10;;;9.80;92.40;;;;;;5047013;28;20021;-60
2021/11/16 08:00:32;;;;;;;16.83;8.98;;;9.80;92.50;;;;;;5030225;28;20032;-60
2021/11/16 08:03:06;;;;;;;13.40;8.70;;;9.80;92.50;;;;;;5063942;28;20144;-60
2021/11/16 08:11:36;;;;;;;42.78;9.80;;;9.80;92.50;;;;;;5029146;28;20024;-59
2021/11/16 08:13:59;;;;;;;34.28;9.45;;;9.80;92.60;;;;;;5034657;28;20076;-60
2021/11/16 08:16:28;;;;;;;27.17;9.73;;;9.80;92.50;;;;;;5043625;28;20098;-60
2021/11/16 08:19:01;;;;;;;45.85;10.90;;;9.80;92.50;;;;;;5044807;28;20403;-59
2021/11/16 08:21:27;;;;;;;32.65;10.65;;;9.80;92.50;;;;;;5045554;28;20143;-59
2021/11/16 08:23:59;;;;;;;37.15;10.75;;;9.80;92.50;;;;;;5042499;28;20036;-59
2021/11/16 08:26:33;;;;;;;28.63;10.55;;;9.80;92.60;;;;;;5028553;28;20033;-60
2021/11/16 08:28:58;;;;;;;32.88;10.25;;;9.80;92.60;;;;;;5028344;28;20460;-59
2021/11/16 08:31:25;;;;;;;24.65;9.27;;;9.80;92.60;;;;;;5062767;28;20032;-60
2021/11/16 08:33:52;;;;;;;39.33;10.77;;;9.80;92.60;;;;;;5025630;28;20035;-60
2021/11/16 08:36:18;;;;;;;29.67;10.43;;;9.80;92.60;;;;;;5044976;28;20121;-60
2021/11/16 08:38:44;;;;;;;34.50;10.38;;;9.80;92.60;;;;;;5026649;28;20034;-60
2021/11/16 08:41:14;;;;;;;49.05;12.30;;;9.80;92.60;;;;;;5042529;28;20029;-62
2021/11/16 08:43:40;;;;;;;43.08;11.38;;;9.80;92.60;;;;;;5057301;28;20033;-60
2021/11/16 08:46:06;;;;;;;32.60;11.38;;;9.80;92.70;;;;;;5042902;28;20028;-60
2021/11/16 08:48:32;;;;;;;32.65;10.70;;;9.80;92.60;;;;;;5028000;28;20097;-59
2021/11/16 08:51:02;;;;;;;40.33;11.30;;;9.80;92.60;;;;;;5047162;28;20099;-59
2021/11/16 08:53:32;;;;;;;34.25;11.32;;;9.80;92.60;;;;;;5046256;28;20520;-60
2021/11/16 08:55:58;;;;;;;35.80;12.10;;;9.80;92.60;;;;;;5013035;28;20020;-63
2021/11/16 08:58:28;;;;;;;48.03;11.50;;;9.80;92.60;;;;;;5042751;28;20061;-62
2021/11/16 09:00:57;;;;;;;55.13;12.40;;;9.80;92.60;;;;;;5044343;28;20119;-61
2021/11/16 09:03:29;;;;;;;95.85;17.65;;;9.80;92.60;;;;;;5044737;28;20044;-60
2021/11/16 09:05:54;;;;;;;54.85;14.60;;;9.80;92.70;;;;;;5020741;28;20316;-63
2021/11/16 09:08:27;;;;;;;50.40;12.32;;;9.80;92.70;;;;;;5027014;28;20028;-60
2021/11/16 09:10:57;;;;;;;40.35;12.52;;;9.80;92.60;;;;;;5041732;28;20033;-60
2021/11/16 09:13:25;;;;;;;58.25;12.85;;;9.90;92.60;;;;;;5038841;28;20435;-60
2021/11/16 09:15:56;;;;;;;73.03;15.23;;;9.80;92.60;;;;;;5036373;28;20103;-60
2021/11/16 09:18:29;;;;;;;66.85;15.55;;;9.80;92.60;;;;;;5033289;28;20706;-59
2021/11/16 09:21:01;;;;;;;34.75;12.63;;;9.90;92.60;;;;;;5054526;28;20017;-60
2021/11/16 09:23:32;;;;;;;42.63;12.02;;;9.90;92.60;;;;;;5036688;28;20047;-60
2021/11/16 09:29:02;;;;;;;35.40;11.70;;;9.80;92.60;;;;;;5038861;28;20032;-60
2021/11/16 09:31:34;;;;;;;52.58;11.88;;;9.90;92.70;;;;;;5061685;28;20433;-59
2021/11/16 09:34:13;;;;;;;58.20;13.50;;;9.90;92.70;;;;;;5024578;28;20016;-60
2021/11/16 09:36:39;;;;;;;45.05;12.50;;;9.80;92.60;;;;;;5038329;28;20052;-60
2021/11/16 09:39:16;;;;;;;46.08;12.65;;;9.80;92.60;;;;;;5042595;28;20082;-60
2021/11/16 09:41:49;;;;;;;39.20;12.63;;;9.90;92.60;;;;;;5043173;28;20492;-60
2021/11/16 09:44:40;;;;;;;43.50;12.75;;;9.90;92.60;;;;;;5062400;28;20131;-60
2021/11/16 09:47:17;;;;;;;39.53;12.90;;;9.90;92.60;;;;;;5060813;28;20033;-60
2021/11/16 09:49:44;;;;;;;44.75;13.48;;;9.90;92.50;;;;;;5061392;28;20039;-60
2021/11/16 09:52:20;;;;;;;51.72;13.65;;;9.90;92.60;;;;;;5024304;28;20066;-60
2021/11/16 09:54:56;;;;;;;35.10;12.40;;;9.90;92.50;;;;;;5060232;28;20044;-60
2021/11/16 09:57:47;;;;;;;33.13;11.68;;;9.90;92.50;;;;;;5042328;28;20033;-60
2021/11/16 10:00:18;;;;;;;30.23;11.15;;;9.90;92.50;;;;;;5042882;28;20496;-60
2021/11/16 10:03:27;;;;;;;34.33;12.43;;;9.90;92.50;;;;;;5025828;28;20146;-60
2021/11/16 10:05:55;;;;;;;42.75;12.30;;;9.90;92.50;;;;;;4968379;28;20624;-59
2021/11/16 10:08:21;;;;;;;52.05;14.60;;;10.00;92.50;;;;;;4960037;28;20038;-60
2021/11/16 10:10:52;;;;;;;96.15;15.48;;;10.00;92.50;;;;;;5014676;28;20051;-59
2021/11/16 10:13:20;;;;;;;74.68;15.95;;;10.00;92.60;;;;;;5011750;28;20698;-59
2021/11/16 10:15:50;;;;;;;58.88;15.60;;;10.00;92.50;;;;;;5041959;28;20541;-59
2021/11/16 10:18:16;;;;;;;52.90;13.30;;;10.00;92.60;;;;;;5024417;28;20449;-59
2021/11/16 10:20:43;;;;;;;81.18;15.00;;;10.00;92.60;;;;;;5041562;28;20044;-59
2021/11/16 10:23:10;;;;;;;74.05;15.57;;;10.00;92.60;;;;;;5040082;28;20036;-59
2021/11/16 10:25:39;;;;;;;75.13;16.13;;;10.10;92.70;;;;;;5044136;28;20036;-59
2021/11/16 10:28:09;;;;;;;74.47;14.85;;;10.10;92.80;;;;;;5041357;28;20039;-59
2021/11/16 10:30:35;;;;;;;70.10;14.15;;;10.10;92.80;;;;;;5025858;28;20028;-60
2021/11/16 10:33:12;;;;;;;66.30;14.73;;;10.10;92.70;;;;;;5006045;28;20793;-60
2021/11/16 10:35:59;;;;;;;69.05;13.93;;;10.10;92.50;;;;;;5040235;28;20017;-61
2021/11/16 10:38:35;;;;;;;81.40;15.77;;;10.20;92.40;;;;;;5031665;28;20067;-59
2021/11/16 10:41:03;;;;;;;97.30;15.63;;;10.20;92.40;;;;;;5045370;28;20154;-59
2021/11/16 10:43:56;;;;;;;82.25;16.67;;;10.20;92.50;;;;;;5013621;28;20608;-60
2021/11/16 10:46:23;;;;;;;62.20;13.50;;;10.20;92.60;;;;;;5044712;28;20024;-59
2021/11/16 10:48:50;;;;;;;52.95;14.05;;;10.20;92.50;;;;;;5027421;28;20115;-59
2021/11/16 10:51:16;;;;;;;47.05;13.15;;;10.20;92.40;;;;;;5044603;28;20146;-59
2021/11/16 10:53:50;;;;;;;74.85;14.55;;;10.20;92.40;;;;;;5046032;28;20500;-62
2021/11/16 10:56:22;;;;;;;66.45;14.73;;;10.20;92.50;;;;;;5044441;28;20040;-60
2021/11/16 10:58:48;;;;;;;84.88;14.30;;;10.20;92.50;;;;;;5030028;28;20054;-59
2021/11/16 11:01:17;;;;;;;53.72;13.15;;;10.20;92.50;;;;;;5027740;28;20025;-59
2021/11/16 11:03:48;;;;;;;47.92;14.50;;;10.30;92.50;;;;;;5061988;28;20093;-60
2021/11/16 11:06:15;;;;;;;65.00;14.00;;;10.20;92.50;;;;;;5030567;28;20039;-59
2021/11/16 11:08:51;;;;;;;61.03;14.48;;;10.20;92.40;;;;;;5061603;28;20448;-60
2021/11/16 11:11:29;;;;;;;60.85;14.75;;;10.20;92.70;;;;;;5053782;28;20132;-59
2021/11/16 11:14:08;;;;;;;69.32;14.50;;;10.30;92.40;;;;;;5044104;28;20027;-60
2021/11/16 11:16:39;;;;;;;47.45;13.38;;;10.30;92.40;;;;;;5042512;28;20101;-60
2021/11/16 11:19:06;;;;;;;61.58;14.52;;;10.30;92.40;;;;;;5061243;28;20029;-62
2021/11/16 11:21:37;;;;;;;67.63;14.07;;;10.30;92.50;;;;;;5044388;28;20407;-60
2021/11/16 11:24:22;;;;;;;60.53;14.25;;;10.30;92.40;;;;;;5043823;28;21301;-60
2021/11/16 11:26:56;;;;;;;56.75;13.93;;;10.30;92.40;;;;;;5062396;28;20048;-59
2021/11/16 11:29:31;;;;;;;56.55;14.30;;;10.30;92.40;;;;;;5043848;28;20051;-60
2021/11/16 11:32:12;;;;;;;38.03;13.43;;;10.30;92.40;;;;;;5044300;28;20984;-60
2021/11/16 11:34:40;;;;;;;67.78;16.23;;;10.30;92.50;;;;;;5037665;28;20055;-60
2021/11/16 11:37:24;;;;;;;70.20;14.35;;;10.30;92.60;;;;;;5038402;28;20032;-60
2021/11/16 11:39:59;;;;;;;77.53;16.30;;;10.30;92.60;;;;;;5039995;28;20275;-60
2021/11/16 11:42:26;;;;;;;77.65;15.23;;;10.30;92.60;;;;;;5039960;28;20024;-60
2021/11/16 11:44:55;;;;;;;65.03;15.88;;;10.30;92.60;;;;;;5021286;28;20053;-61
2021/11/16 11:47:24;;;;;;;58.22;13.48;;;10.30;92.60;;;;;;5052349;28;20054;-61
2021/11/16 11:49:49;;;;;;;58.20;13.75;;;10.30;92.50;;;;;;5026297;28;20127;-61
2021/11/16 11:52:15;;;;;;;73.10;13.70;;;10.30;92.50;;;;;;5058697;28;20722;-62
2021/11/16 11:54:41;;;;;;;70.82;15.93;;;10.30;92.50;;;;;;5022965;28;20033;-60
2021/11/16 11:57:07;;;;;;;63.03;15.30;;;10.40;92.50;;;;;;5041251;28;20037;-61
2021/11/16 11:59:32;;;;;;;72.88;14.43;;;10.40;92.50;;;;;;5039089;28;20031;-61
2021/11/16 12:01:58;;;;;;;73.85;15.50;;;10.30;92.40;;;;;;5003230;28;20033;-60
2021/11/16 12:04:24;;;;;;;72.18;15.88;;;10.40;92.50;;;;;;5018511;28;20496;-60
2021/11/16 12:06:50;;;;;;;94.78;16.90;;;10.40;92.50;;;;;;5008842;28;20069;-60
2021/11/16 12:09:16;;;;;;;82.10;16.17;;;10.40;92.50;;;;;;5040344;28;20078;-60
2021/11/16 12:11:42;;;;;;;114.72;16.77;;;10.30;92.50;;;;;;5040552;28;20032;-60
2021/11/16 12:14:44;;;;;;;83.50;17.63;;;10.40;92.50;;;;;;5023871;28;20034;-60
2021/11/16 12:17:13;;;;;;;97.00;17.85;;;10.40;92.40;;;;;;4972635;28;20038;-60
2021/11/16 12:19:48;;;;;;;83.45;15.85;;;10.40;92.40;;;;;;5017250;28;20044;-60
2021/11/16 12:22:23;;;;;;;97.93;18.65;;;10.40;92.30;;;;;;5053266;28;20580;-60
2021/11/16 12:24:53;;;;;;;96.10;15.75;;;10.40;92.30;;;;;;5037770;28;20036;-60
2021/11/16 12:27:21;;;;;;;82.50;15.95;;;10.40;92.30;;;;;;5057240;28;20029;-60
2021/11/16 12:29:48;;;;;;;106.95;17.48;;;10.40;92.30;;;;;;5044169;28;20040;-62
2021/11/16 12:32:22;;;;;;;67.72;15.18;;;10.40;92.30;;;;;;5026573;28;20086;-61
2021/11/16 12:35:12;;;;;;;88.35;15.00;;;10.40;92.30;;;;;;5028427;28;20073;-60
2021/11/16 12:37:43;;;;;;;114.18;19.42;;;10.50;92.30;;;;;;5050075;28;20059;-61
2021/11/16 12:40:35;;;;;;;65.85;17.05;;;10.50;92.30;;;;;;5060987;28;20044;-61
2021/11/16 12:43:07;;;;;;;92.28;17.50;;;10.50;92.30;;;;;;5060147;28;20133;-60
2021/11/16 12:45:40;;;;;;;102.80;18.33;;;10.50;92.30;;;;;;5057343;28;20032;-61
2021/11/16 12:48:06;;;;;;;100.85;17.52;;;10.50;92.30;;;;;;5041899;28;20032;-61
2021/11/16 12:50:32;;;;;;;99.53;18.13;;;10.50;92.40;;;;;;5052297;28;20207;-61
2021/11/16 12:52:58;;;;;;;114.47;18.73;;;10.50;92.40;;;;;;5023149;28;20036;-60
2021/11/16 12:55:25;;;;;;;96.72;19.02;;;10.50;92.30;;;;;;5059565;28;20059;-61
2021/11/16 12:57:55;;;;;;;91.15;18.20;;;10.50;92.30;;;;;;5018627;28;20032;-61
2021/11/16 13:00:33;;;;;;;90.28;19.17;;;10.60;92.40;;;;;;5026426;28;21054;-61